Time;durP1;ratioP1;P1;durP2;ratioP2;P2;SDS_P1;SDS_P2;PMS_P1;PMS_P2;Temp;Humidity;BMP_temperature;BMP_pressure;BME280_temperature;BME280_humidity;BME280_pressure;Samples;Min_cycle;Max_cycle;Signal;HPM_P1;HPM_P2
2022/09/10 00:01:27;;;;;;;2.12;1.60;;;;;;;9.92;99.67;101558.77;1749975;82;20976;-37
2022/09/10 00:03:54;;;;;;;3.42;1.45;;;;;;;9.93;99.61;101556.63;1749886;82;22119;-37
2022/09/10 00:06:24;;;;;;;5.12;1.80;;;;;;;9.93;98.68;101554.03;1749962;82;21243;-37
2022/09/10 00:08:50;;;;;;;2.60;1.77;;;;;;;9.96;98.84;101560.95;1749743;81;20905;-37
2022/09/10 00:11:19;;;;;;;3.67;1.52;;;;;;;9.95;98.64;101561.81;1749979;82;20941;-37
2022/09/10 00:13:46;;;;;;;5.70;1.70;;;;;;;9.95;99.13;101566.98;1749979;82;21538;-37
2022/09/10 00:16:13;;;;;;;7.33;1.90;;;;;;;9.91;100.00;101557.92;1749897;82;20992;-37
2022/09/10 00:18:41;;;;;;;3.33;1.60;;;;;;;9.88;100.00;101560.92;1749804;81;21062;-37
2022/09/10 00:21:11;;;;;;;2.17;1.98;;;;;;;9.85;100.00;101551.87;1722134;82;20932;-37
2022/09/10 00:23:38;;;;;;;4.70;1.85;;;;;;;9.81;100.00;101555.31;1750381;82;20968;-37
2022/09/10 00:26:27;;;;;;;4.30;1.75;;;;;;;9.77;100.00;101551.84;1748220;81;20951;-37
2022/09/10 00:28:58;;;;;;;4.37;1.60;;;;;;;9.73;100.00;101548.83;1735990;82;21407;-37
2022/09/10 00:31:25;;;;;;;1.60;1.37;;;;;;;9.70;100.00;101547.09;1736046;82;21206;-37
2022/09/10 00:33:53;;;;;;;2.47;1.62;;;;;;;9.66;100.00;101552.27;1735793;82;21000;-37
2022/09/10 00:36:24;;;;;;;2.10;1.85;;;;;;;9.62;100.00;101549.67;1736048;82;20913;-37
2022/09/10 00:38:53;;;;;;;4.20;1.50;;;;;;;9.60;100.00;101541.47;1736154;82;20926;-37
2022/09/10 00:41:21;;;;;;;2.35;1.60;;;;;;;9.59;100.00;101533.28;1735872;82;21003;-37
2022/09/10 00:43:58;;;;;;;2.65;2.02;;;;;;;9.56;100.00;101525.08;1735924;82;22393;-37
2022/09/10 00:46:48;;;;;;;4.03;1.85;;;;;;;9.55;100.00;101532.84;1715022;82;20925;-37
2022/09/10 00:49:23;;;;;;;2.75;1.72;;;;;;;9.55;100.00;101536.72;1714948;82;20897;-37
2022/09/10 00:51:50;;;;;;;1.70;1.60;;;;;;;9.54;100.00;101525.50;1736270;82;21043;-37
2022/09/10 00:54:17;;;;;;;4.05;2.30;;;;;;;9.53;100.00;101512.59;1735933;82;20913;-37
2022/09/10 00:56:44;;;;;;;4.37;2.20;;;;;;;9.57;100.00;101535.00;1735946;82;21128;-37
2022/09/10 00:59:10;;;;;;;4.55;1.85;;;;;;;9.57;100.00;101537.58;1735877;82;20984;-37
2022/09/10 01:01:38;;;;;;;3.75;1.60;;;;;;;9.57;100.00;101538.43;1736142;82;21466;-37
2022/09/10 01:04:05;;;;;;;3.17;2.25;;;;;;;9.57;100.00;101535.00;1735777;82;20870;-37
2022/09/10 01:06:33;;;;;;;3.30;2.17;;;;;;;9.56;100.00;101545.75;1735978;82;21605;-37
2022/09/10 01:09:00;;;;;;;2.52;1.72;;;;;;;9.56;100.00;101542.32;1715251;81;21254;-37
2022/09/10 01:11:36;;;;;;;2.45;1.72;;;;;;;9.55;100.00;101554.81;1714813;82;20993;-37
2022/09/10 01:14:18;;;;;;;6.42;1.90;;;;;;;9.54;100.00;101559.55;1731759;82;20906;-37
2022/09/10 01:17:00;;;;;;;3.17;1.75;;;;;;;9.53;100.00;101564.29;1735597;82;20980;-37
2022/09/10 01:19:58;;;;;;;2.05;1.80;;;;;;;9.53;100.00;101565.58;1735790;81;20984;-37
2022/09/10 01:22:55;;;;;;;;;;;;;;;9.52;100.00;101565.15;1737764;82;22222;-37
2022/09/10 01:25:48;;;;;;;4.22;2.05;;;;;;;9.51;100.00;101564.71;1736065;82;20095;-37
2022/09/10 01:40:10;;;;;;;2.55;1.67;;;;;;;9.84;100.00;101560.49;1780564;79;22692;-36
2022/09/10 01:42:39;;;;;;;3.15;1.77;;;;;;;9.78;100.00;101550.58;1750517;81;21468;-37
2022/09/10 01:45:10;;;;;;;3.62;1.95;;;;;;;9.75;100.00;101554.45;1759393;81;21139;-36
2022/09/10 01:48:07;;;;;;;2.05;1.87;;;;;;;9.72;100.00;101559.58;1748580;81;21275;-37
2022/09/10 01:50:50;;;;;;;2.25;1.80;;;;;;;9.67;100.00;101554.84;1759316;81;20986;-36
2022/09/10 01:53:41;;;;;;;1.82;1.72;;;;;;;9.62;100.00;101552.67;1743862;81;20924;-37
2022/09/10 01:56:34;;;;;;;4.03;1.90;;;;;;;9.59;100.00;101548.80;1759415;81;20927;-37
2022/09/10 01:59:40;;;;;;;2.10;1.90;;;;;;;9.55;100.00;101542.73;1748371;81;21361;-36
2022/09/10 02:02:15;;;;;;;2.98;1.65;;;;;;;9.51;100.00;101544.03;1749300;81;20876;-38
2022/09/10 02:04:42;;;;;;;1.90;1.80;;;;;;;9.48;100.00;101550.05;1759686;81;20940;-38
2022/09/10 02:07:10;;;;;;;6.08;2.35;;;;;;;9.43;100.00;101547.44;1759421;81;21229;-38
2022/09/10 02:09:37;;;;;;;7.30;2.30;;;;;;;9.40;100.00;101546.58;1725716;81;21006;-38
2022/09/10 02:12:06;;;;;;;2.77;2.25;;;;;;;9.36;100.00;101554.73;1748544;81;21234;-38
2022/09/10 02:14:36;;;;;;;3.12;1.92;;;;;;;9.34;100.00;101546.11;1759150;80;20935;-38
2022/09/10 02:17:20;;;;;;;2.75;1.92;;;;;;;9.32;100.00;101547.83;1759271;81;20904;-37
2022/09/10 02:19:47;;;;;;;5.83;1.82;;;;;;;9.30;100.00;101555.56;1759233;81;20970;-37
2022/09/10 02:22:14;;;;;;;3.47;2.37;;;;;;;9.30;100.00;101555.56;1759260;81;20975;-37
2022/09/10 02:24:43;;;;;;;3.72;2.20;;;;;;;9.32;100.00;101558.17;1759424;81;21082;-37
2022/09/10 02:27:11;;;;;;;7.97;2.70;;;;;;;9.28;100.00;101565.03;1759371;80;21007;-37
2022/09/10 02:29:38;;;;;;;4.90;2.75;;;;;;;9.25;100.00;101557.72;1758623;81;20998;-37
2022/09/10 02:32:07;;;;;;;3.90;2.10;;;;;;;9.18;100.00;101556.81;1723885;81;21003;-37
2022/09/10 02:34:35;;;;;;;5.28;2.55;;;;;;;9.09;100.00;101563.20;1758427;81;20943;-37
2022/09/10 02:37:02;;;;;;;7.47;2.75;;;;;;;9.01;100.00;101560.16;1758625;81;21119;-37
2022/09/10 02:39:29;;;;;;;7.53;3.08;;;;;;;8.96;100.00;101557.11;1761939;81;20852;-37
2022/09/10 02:41:57;;;;;;;7.47;2.83;;;;;;;8.86;100.00;101549.31;1764093;81;20908;-37
2022/09/10 02:44:26;;;;;;;3.33;2.62;;;;;;;8.79;100.00;101546.27;1764081;81;21547;-36
2022/09/10 02:46:54;;;;;;;4.97;3.20;;;;;;;8.72;100.00;101541.48;1764353;81;20863;-37
2022/09/10 02:49:21;;;;;;;4.87;2.90;;;;;;;8.63;100.00;101547.44;1764187;81;21366;-36
2022/09/10 02:51:49;;;;;;;5.40;2.70;;;;;;;8.58;100.00;101549.55;1764073;81;21045;-36
2022/09/10 02:54:19;;;;;;;3.30;2.60;;;;;;;8.52;100.00;101545.63;1764125;81;20907;-36
2022/09/10 02:56:50;;;;;;;4.70;2.60;;;;;;;8.44;100.00;101549.41;1732781;81;20958;-36
2022/09/10 02:59:19;;;;;;;9.40;3.02;;;;;;;8.40;100.00;101553.70;1763481;81;21465;-37
2022/09/10 03:01:47;;;;;;;5.25;2.47;;;;;;;8.36;100.00;101557.52;1734124;81;21173;-37
2022/09/10 03:04:15;;;;;;;3.98;2.98;;;;;;;8.32;100.00;101557.50;1764548;81;21045;-37
2022/09/10 03:06:45;;;;;;;7.55;3.30;;;;;;;8.31;100.00;101557.06;1764212;81;21060;-37
2022/09/10 03:09:12;;;;;;;5.00;3.02;;;;;;;8.29;100.00;101552.31;1764138;81;21037;-36
2022/09/10 03:11:40;;;;;;;3.70;3.00;;;;;;;8.27;100.00;101545.41;1764234;80;20972;-36
2022/09/10 03:14:09;;;;;;;4.67;3.37;;;;;;;8.24;100.00;101542.80;1764170;81;21126;-37
2022/09/10 03:16:35;;;;;;;4.22;3.22;;;;;;;8.21;100.00;101538.50;1764183;81;20946;-37
2022/09/10 03:19:02;;;;;;;10.32;3.77;;;;;;;8.19;100.00;101535.89;1764204;81;21006;-37
2022/09/10 03:21:32;;;;;;;7.65;3.52;;;;;;;8.17;100.00;101538.89;1764152;81;20883;-37
2022/09/10 03:23:59;;;;;;;6.08;3.58;;;;;;;8.15;100.00;101532.85;1763966;81;20943;-37
2022/09/10 03:26:27;;;;;;;5.42;3.40;;;;;;;8.14;100.00;101534.99;1730771;83;21072;-37
2022/09/10 03:28:54;;;;;;;6.25;3.52;;;;;;;8.13;100.00;101530.69;1764093;81;20946;-37
2022/09/10 03:31:23;;;;;;;3.87;3.47;;;;;;;8.12;100.00;101526.80;1764446;81;20998;-37
2022/09/10 03:33:50;;;;;;;3.52;3.20;;;;;;;8.12;100.00;101519.05;1764489;81;20962;-37
2022/09/10 03:36:17;;;;;;;2.72;2.45;;;;;;;8.11;100.00;101523.36;1736540;81;20919;-37
2022/09/10 03:38:44;;;;;;;2.80;2.45;;;;;;;8.11;100.00;101514.75;1764511;80;21126;-37
2022/09/10 03:41:11;;;;;;;7.22;2.72;;;;;;;8.10;100.00;101509.16;1733743;81;21044;-37
2022/09/10 03:43:38;;;;;;;4.85;2.85;;;;;;;8.07;100.00;101502.23;1766159;80;20935;-37
2022/09/10 03:46:06;;;;;;;3.37;2.98;;;;;;;8.06;100.00;101509.54;1717147;82;20987;-37
2022/09/10 03:48:36;;;;;;;5.03;3.45;;;;;;;8.07;100.00;101496.23;1717179;83;21454;-37
2022/09/10 03:51:05;;;;;;;7.72;4.33;;;;;;;8.04;100.00;101488.03;1696145;84;21247;-36
2022/09/10 03:53:32;;;;;;;3.47;3.27;;;;;;;8.03;100.00;101484.61;1693940;83;21043;-36
2022/09/10 03:56:02;;;;;;;4.05;3.47;;;;;;;8.02;100.00;101486.75;1697715;84;20941;-36
2022/09/10 03:58:30;;;;;;;3.67;3.37;;;;;;;8.02;100.00;101488.04;1724958;83;20918;-36
2022/09/10 04:00:58;;;;;;;3.65;3.00;;;;;;;8.02;100.00;101502.22;1724960;83;20910;-37
2022/09/10 04:03:24;;;;;;;4.47;3.45;;;;;;;8.04;100.00;101503.50;1724875;83;21163;-37
2022/09/10 04:05:51;;;;;;;2.98;2.77;;;;;;;8.05;100.00;101502.24;1724830;83;20894;-36
2022/09/10 04:08:19;;;;;;;8.65;3.15;;;;;;;8.08;100.00;101501.83;1724938;83;21364;-36
2022/09/10 04:10:47;;;;;;;4.03;2.87;;;;;;;8.10;100.00;101506.16;1694097;83;21021;-37
2022/09/10 04:13:14;;;;;;;2.87;2.52;;;;;;;8.13;100.00;101509.17;1671400;83;20970;-36
2022/09/10 04:15:45;;;;;;;4.28;3.12;;;;;;;8.15;100.00;101503.60;1724903;83;22011;-37
2022/09/10 04:18:11;;;;;;;2.95;2.72;;;;;;;8.18;100.00;101509.66;1694228;83;20945;-36
2022/09/10 04:20:39;;;;;;;3.35;2.75;;;;;;;8.21;100.00;101503.67;1724908;83;21443;-36
2022/09/10 04:23:10;;;;;;;4.20;2.80;;;;;;;8.24;100.00;101504.98;1694884;83;20961;-36
2022/09/10 04:25:39;;;;;;;3.10;2.80;;;;;;;8.25;100.00;101501.55;1694058;83;20945;-36
2022/09/10 04:28:06;;;;;;;3.90;3.17;;;;;;;8.27;100.00;101501.55;1724757;83;21022;-37
2022/09/10 04:30:33;;;;;;;7.40;2.80;;;;;;;8.26;100.00;101498.13;1724948;83;20973;-37
2022/09/10 04:33:01;;;;;;;4.15;3.00;;;;;;;8.29;100.00;101502.02;1724730;83;20922;-37
2022/09/10 04:35:30;;;;;;;3.42;2.70;;;;;;;8.30;100.00;101499.87;1724998;83;21063;-37
2022/09/10 04:37:57;;;;;;;3.90;2.90;;;;;;;8.32;100.00;101503.32;1725114;83;20866;-36
2022/09/10 04:40:26;;;;;;;2.95;2.62;;;;;;;8.35;100.00;101502.49;1716620;83;22082;-37
2022/09/10 04:42:52;;;;;;;3.83;2.95;;;;;;;8.37;100.00;101497.33;1713896;83;20962;-36
2022/09/10 04:45:19;;;;;;;3.35;2.83;;;;;;;8.40;100.00;101498.64;1713404;83;20953;-37
2022/09/10 04:47:46;;;;;;;3.10;2.80;;;;;;;8.43;100.00;101489.21;1713518;83;20983;-37
2022/09/10 04:50:15;;;;;;;4.62;2.77;;;;;;;8.44;100.00;101496.09;1713594;83;21017;-36
2022/09/10 04:52:44;;;;;;;4.00;2.92;;;;;;;8.46;100.00;101494.80;1684705;83;21154;-37
2022/09/10 04:55:10;;;;;;;3.12;2.83;;;;;;;8.52;100.00;101497.89;1713696;82;21013;-37
2022/09/10 04:57:37;;;;;;;6.75;2.85;;;;;;;8.52;100.00;101497.48;1713558;83;20922;-37
2022/09/10 05:00:09;;;;;;;3.15;2.85;;;;;;;8.53;100.00;101506.95;1687231;83;20935;-36
2022/09/10 05:02:38;;;;;;;3.60;3.10;;;;;;;8.56;100.00;101508.25;1713585;83;20946;-36
2022/09/10 05:05:07;;;;;;;5.95;3.20;;;;;;;8.58;100.00;101515.99;1713767;82;21773;-36
2022/09/10 05:07:33;;;;;;;3.22;2.83;;;;;;;8.60;100.00;101512.58;1713606;83;21590;-37
2022/09/10 05:10:02;;;;;;;5.15;3.10;;;;;;;8.62;100.00;101515.19;1687360;83;20985;-37
2022/09/10 05:12:30;;;;;;;3.60;3.20;;;;;;;8.62;100.00;101517.32;1713539;83;20922;-37
2022/09/10 05:14:57;;;;;;;6.00;3.00;;;;;;;8.63;100.00;101516.91;1713554;83;20997;-36
2022/09/10 05:17:24;;;;;;;3.08;2.80;;;;;;;8.66;100.00;101513.47;1713579;83;21144;-36
2022/09/10 05:19:51;;;;;;;3.02;2.80;;;;;;;8.68;100.00;101513.05;1687445;83;21437;-36
2022/09/10 05:22:20;;;;;;;8.15;3.25;;;;;;;8.72;100.00;101514.82;1713770;83;20994;-36
2022/09/10 05:24:47;;;;;;;3.55;2.42;;;;;;;8.73;100.00;101508.80;1713597;82;20957;-36
2022/09/10 05:27:15;;;;;;;11.05;3.42;;;;;;;8.76;100.00;101512.69;1713583;82;20926;-36
2022/09/10 05:29:42;;;;;;;4.80;2.95;;;;;;;8.79;100.00;101511.41;1713358;83;22296;-37
2022/09/10 05:32:10;;;;;;;10.20;2.65;;;;;;;8.82;100.00;101515.30;1713548;83;20989;-36
2022/09/10 05:34:38;;;;;;;7.15;2.80;;;;;;;8.85;100.00;101502.41;1713858;82;21547;-37
2022/09/10 05:37:07;;;;;;;7.40;2.92;;;;;;;8.88;100.00;101500.28;1713361;83;21400;-36
2022/09/10 05:39:36;;;;;;;3.10;2.80;;;;;;;8.93;100.00;101493.41;1716202;83;20942;-36
2022/09/10 05:42:03;;;;;;;3.25;3.00;;;;;;;8.98;100.00;101491.70;1724903;83;21047;-36
2022/09/10 05:44:30;;;;;;;4.37;2.87;;;;;;;9.03;100.00;101483.55;1694381;83;20953;-36
2022/09/10 05:46:56;;;;;;;7.40;3.00;;;;;;;9.08;100.00;101481.41;1724851;83;20997;-36
2022/09/10 05:49:23;;;;;;;5.42;2.85;;;;;;;9.12;100.00;101488.34;1724815;83;21498;-37
2022/09/10 05:51:50;;;;;;;7.55;2.75;;;;;;;9.19;100.00;101484.91;1724848;83;20977;-37
2022/09/10 05:54:17;;;;;;;3.35;2.70;;;;;;;9.26;100.00;101471.15;1724703;83;21503;-37
2022/09/10 05:56:45;;;;;;;3.72;3.27;;;;;;;9.32;100.00;101480.20;1724664;83;21094;-36
2022/09/10 05:59:13;;;;;;;5.08;2.67;;;;;;;9.39;100.00;101478.95;1724818;83;21001;-36
2022/09/10 06:01:41;;;;;;;11.25;2.67;;;;;;;9.45;100.00;101475.94;1725004;83;20933;-37
2022/09/10 06:04:10;;;;;;;4.62;2.98;;;;;;;9.51;100.00;101475.54;1724905;83;20997;-37
2022/09/10 06:06:36;;;;;;;4.00;2.83;;;;;;;9.56;100.00;101473.38;1724837;83;21146;-37
2022/09/10 06:09:05;;;;;;;2.80;2.58;;;;;;;9.60;100.00;101474.26;1724327;83;20945;-37
2022/09/10 06:11:49;;;;;;;9.78;2.77;;;;;;;9.63;100.00;101476.43;1697392;83;20966;-37
2022/09/10 06:14:16;;;;;;;8.20;2.70;;;;;;;9.66;100.00;101476.84;1724930;83;21017;-37
2022/09/10 06:16:44;;;;;;;3.15;2.58;;;;;;;9.68;100.00;101481.59;1725098;83;21005;-37
2022/09/10 06:19:11;;;;;;;4.62;2.37;;;;;;;9.71;100.00;101477.70;1724798;83;21228;-36
2022/09/10 06:21:39;;;;;;;4.67;2.35;;;;;;;9.71;100.00;101478.16;1725069;83;20953;-37
2022/09/10 06:24:06;;;;;;;5.58;2.33;;;;;;;9.72;100.00;101488.92;1725086;83;20926;-37
2022/09/10 06:26:35;;;;;;;3.50;2.58;;;;;;;9.73;100.00;101481.60;1694596;83;21025;-37
2022/09/10 06:29:04;;;;;;;8.88;2.98;;;;;;;9.72;100.00;101479.43;1724483;83;21507;-37
2022/09/10 06:31:33;;;;;;;9.03;2.90;;;;;;;9.73;100.00;101481.19;1694100;83;21239;-37
2022/09/10 06:34:01;;;;;;;5.40;2.30;;;;;;;9.73;100.00;101462.21;1725105;83;21545;-37
2022/09/10 06:36:30;;;;;;;3.62;2.70;;;;;;;9.74;100.00;101454.47;1724951;83;20914;-37
2022/09/10 06:38:57;;;;;;;9.23;3.15;;;;;;;9.75;100.00;101462.66;1694175;83;20989;-37
2022/09/10 06:41:24;;;;;;;14.05;2.58;;;;;;;9.78;100.00;101462.66;1724919;83;20894;-37
2022/09/10 06:43:58;;;;;;;5.80;2.95;;;;;;;9.83;100.00;101469.55;1716135;83;21107;-37
2022/09/10 06:46:30;;;;;;;7.83;2.70;;;;;;;9.88;100.00;101467.83;1724205;83;20958;-37
2022/09/10 06:49:01;;;;;;;3.20;2.87;;;;;;;9.91;100.00;101462.23;1693612;83;20953;-37
2022/09/10 06:51:29;;;;;;;8.93;2.50;;;;;;;9.96;98.99;101468.67;1695209;83;20953;-37
2022/09/10 06:53:56;;;;;;;3.30;2.42;;;;;;;9.99;99.71;101475.59;1724853;83;21558;-37
2022/09/10 06:56:23;;;;;;;5.40;2.50;;;;;;;10.03;99.83;101478.60;1724952;83;21063;-37
2022/09/10 06:58:50;;;;;;;8.13;2.83;;;;;;;10.08;99.08;101483.79;1724951;83;20999;-37
2022/09/10 07:01:20;;;;;;;6.87;2.80;;;;;;;10.14;99.04;101486.37;1724951;83;20870;-37
2022/09/10 07:03:57;;;;;;;3.15;2.52;;;;;;;10.24;98.92;101485.52;1725094;83;21000;-37
2022/09/10 07:06:26;;;;;;;7.72;2.60;;;;;;;10.34;99.30;101483.76;1724857;83;21510;-37
2022/09/10 07:08:55;;;;;;;6.65;2.47;;;;;;;10.50;99.14;101487.25;1724432;83;21143;-37
2022/09/10 07:11:23;;;;;;;3.90;2.42;;;;;;;10.63;97.59;101488.93;1724769;83;20993;-37
2022/09/10 07:13:51;;;;;;;3.33;2.80;;;;;;;10.72;97.06;101482.88;1724915;83;20958;-37
2022/09/10 07:16:20;;;;;;;12.33;2.92;;;;;;;10.81;97.16;101488.47;1725259;83;21362;-37
2022/09/10 07:18:51;;;;;;;5.22;2.30;;;;;;;10.87;97.09;101489.73;1725268;83;21020;-37
2022/09/10 07:21:18;;;;;;;3.95;2.72;;;;;;;10.93;96.19;101484.52;1724828;83;21379;-37
2022/09/10 07:23:50;;;;;;;5.62;2.75;;;;;;;10.99;95.83;101489.25;1724905;83;21000;-37
2022/09/10 07:26:19;;;;;;;7.87;3.20;;;;;;;11.04;95.51;101478.46;1724963;83;20914;-37
2022/09/10 07:28:48;;;;;;;2.83;2.60;;;;;;;11.06;94.89;101475.42;1724921;83;20993;-37
2022/09/10 07:31:24;;;;;;;4.30;2.47;;;;;;;11.08;93.89;101474.98;1724900;83;21016;-37
2022/09/10 07:33:51;;;;;;;2.72;2.47;;;;;;;11.09;92.97;101471.52;1725083;83;21224;-37
2022/09/10 07:36:18;;;;;;;7.75;2.52;;;;;;;11.11;93.64;101471.08;1724876;83;21590;-37
2022/09/10 07:38:53;;;;;;;3.10;2.47;;;;;;;11.14;93.69;101472.81;1694667;83;20886;-37
2022/09/10 07:41:20;;;;;;;5.35;2.42;;;;;;;11.17;92.82;101480.11;1694029;83;20879;-37
2022/09/10 07:43:54;;;;;;;8.55;3.72;;;;;;;11.20;92.73;101475.36;1724971;83;20993;-37
2022/09/10 07:46:24;;;;;;;8.38;3.17;;;;;;;11.27;93.02;101481.38;1724845;83;21063;-37
2022/09/10 07:48:56;;;;;;;8.38;2.83;;;;;;;11.31;92.14;101475.31;1724792;83;21088;-37
2022/09/10 07:51:24;;;;;;;7.17;2.85;;;;;;;11.38;93.08;101486.06;1724903;83;20991;-37
2022/09/10 07:53:54;;;;;;;3.83;2.80;;;;;;;11.46;92.85;101493.36;1724916;83;20949;-37
2022/09/10 07:56:25;;;;;;;5.10;3.05;;;;;;;11.55;90.87;101489.86;1724823;83;20942;-37
2022/09/10 07:58:52;;;;;;;5.83;2.80;;;;;;;11.58;90.51;101493.72;1724842;83;21235;-37
2022/09/10 08:01:20;;;;;;;6.05;3.02;;;;;;;11.61;90.50;101491.11;1724906;83;20946;-37
2022/09/10 08:03:47;;;;;;;7.25;3.08;;;;;;;11.63;90.75;101493.28;1725077;83;21566;-37
2022/09/10 08:06:15;;;;;;;5.75;3.00;;;;;;;11.68;90.92;101486.75;1694051;83;21017;-37
2022/09/10 08:08:42;;;;;;;6.28;2.98;;;;;;;11.74;90.58;101496.23;1724872;83;20926;-37
2022/09/10 08:11:15;;;;;;;8.20;3.52;;;;;;;11.76;89.53;101490.59;1724788;83;21408;-37
2022/09/10 08:13:49;;;;;;;6.15;3.55;;;;;;;11.81;90.07;101491.87;1724757;83;21025;-37
2022/09/10 08:16:18;;;;;;;5.62;3.12;;;;;;;11.83;89.20;101481.88;1724990;83;20981;-37
2022/09/10 08:18:46;;;;;;;16.23;3.60;;;;;;;11.88;89.04;101490.94;1724821;83;20918;-37
2022/09/10 08:21:14;;;;;;;4.83;2.98;;;;;;;11.91;89.98;101487.02;1724935;83;21029;-37
2022/09/10 08:23:42;;;;;;;5.40;2.90;;;;;;;11.96;90.12;101483.95;1724805;83;21195;-37
2022/09/10 08:26:09;;;;;;;3.83;3.20;;;;;;;11.98;88.30;101487.39;1724870;83;20949;-37
2022/09/10 08:28:36;;;;;;;9.03;3.60;;;;;;;11.97;89.12;101484.37;1724719;83;21033;-37
2022/09/10 08:31:07;;;;;;;8.25;2.90;;;;;;;11.98;90.09;101478.77;1694464;83;20942;-37
2022/09/10 08:33:39;;;;;;;6.67;3.20;;;;;;;11.96;90.25;101476.63;1724745;83;21012;-37
2022/09/10 08:36:12;;;;;;;7.03;3.20;;;;;;;11.99;90.65;101481.33;1724757;83;21108;-37
2022/09/10 08:38:42;;;;;;;5.40;3.10;;;;;;;12.05;91.59;101485.23;1724768;83;20910;-37
2022/09/10 08:41:13;;;;;;;4.17;2.90;;;;;;;12.10;92.04;101477.38;1727627;82;20898;-37
2022/09/10 08:43:46;;;;;;;8.53;3.62;;;;;;;12.17;92.22;101474.30;1729847;83;20894;-38
2022/09/10 08:46:22;;;;;;;9.68;3.65;;;;;;;12.25;92.96;101472.94;1702266;83;21377;-38
2022/09/10 08:49:10;;;;;;;11.73;3.80;;;;;;;12.32;93.66;101475.89;1730112;82;21904;-37
2022/09/10 08:51:52;;;;;;;9.00;3.08;;;;;;;12.35;93.35;101471.97;1730397;83;20862;-38
2022/09/10 08:54:24;;;;;;;8.40;3.70;;;;;;;12.34;93.81;101465.94;1730611;83;20938;-38
2022/09/10 08:56:52;;;;;;;12.30;3.80;;;;;;;12.34;94.12;101462.04;1731115;82;20918;-38
2022/09/10 08:59:26;;;;;;;9.15;3.77;;;;;;;12.37;95.02;101453.34;1701654;83;21043;-38
2022/09/10 09:02:01;;;;;;;8.33;3.20;;;;;;;12.38;93.73;101451.62;1730715;83;21228;-38
2022/09/10 09:04:42;;;;;;;6.65;3.42;;;;;;;12.43;94.53;101451.13;1730567;83;20878;-38
2022/09/10 09:07:14;;;;;;;8.68;3.22;;;;;;;12.53;94.64;101446.70;1730731;83;21510;-37
2022/09/10 09:09:41;;;;;;;7.55;3.83;;;;;;;12.66;93.97;101450.90;1741511;81;20910;-37
2022/09/10 09:12:35;;;;;;;17.30;4.10;;;;;;;12.71;92.95;101448.23;1772061;81;21005;-37
2022/09/10 09:15:20;;;;;;;4.80;3.58;;;;;;;12.77;92.27;101439.09;1772001;81;21562;-38
2022/09/10 09:18:14;;;;;;;5.58;2.85;;;;;;;12.85;91.48;101444.16;1771910;80;20970;-37
2022/09/10 09:20:45;;;;;;;16.93;3.77;;;;;;;12.91;90.05;101448.01;1771853;81;21591;-37
2022/09/10 09:23:25;;;;;;;9.80;3.33;;;;;;;12.95;89.78;101441.89;1772116;81;21037;-37
2022/09/10 09:26:04;;;;;;;10.38;3.33;;;;;;;12.98;90.26;101438.38;1771612;81;20907;-36
2022/09/10 09:29:02;;;;;;;10.55;4.17;;;;;;;12.99;86.63;101425.80;1771817;81;22075;-37
2022/09/10 09:31:31;;;;;;;14.93;3.40;;;;;;;12.99;87.94;101426.67;1733695;82;21591;-37
2022/09/10 09:34:05;;;;;;;9.53;3.87;;;;;;;13.00;87.69;101426.22;1735028;82;20907;-37
2022/09/10 09:36:43;;;;;;;11.78;3.70;;;;;;;13.04;86.91;101435.72;1726216;81;21013;-37
2022/09/10 09:39:16;;;;;;;7.60;3.62;;;;;;;13.04;87.34;101431.82;1771825;81;21548;-37
2022/09/10 09:42:13;;;;;;;10.45;3.58;;;;;;;13.07;87.92;101433.92;1764300;80;22167;-37
2022/09/10 09:44:54;;;;;;;8.45;4.10;;;;;;;13.14;88.00;101421.70;1759078;81;20932;-36
2022/09/10 09:47:22;;;;;;;6.83;3.08;;;;;;;13.20;87.42;101423.37;1731340;81;20911;-36
2022/09/10 09:49:49;;;;;;;6.70;3.33;;;;;;;13.24;86.26;101428.94;1759012;81;21465;-36
2022/09/10 09:52:20;;;;;;;7.42;3.77;;;;;;;13.27;85.66;101426.75;1759471;81;20966;-37
2022/09/10 09:54:53;;;;;;;8.75;3.25;;;;;;;13.27;86.11;101426.75;1759314;81;21835;-37
2022/09/10 09:57:19;;;;;;;6.08;3.00;;;;;;;13.27;85.80;101434.55;1759187;81;20899;-36
2022/09/10 09:59:48;;;;;;;12.45;4.15;;;;;;;13.27;85.38;101430.19;1759334;81;20977;-36
2022/09/10 10:02:21;;;;;;;11.03;3.47;;;;;;;13.21;83.88;101430.28;1759310;81;20939;-36
2022/09/10 10:05:20;;;;;;;7.97;3.30;;;;;;;13.15;84.89;101429.08;1759592;81;20995;-37
2022/09/10 10:07:46;;;;;;;5.35;3.37;;;;;;;13.08;83.85;101417.90;1712033;81;21063;-37
2022/09/10 10:10:24;;;;;;;8.43;3.35;;;;;;;13.06;84.04;101419.66;1759321;81;20947;-37
2022/09/10 10:12:51;;;;;;;8.93;3.30;;;;;;;13.06;82.91;101417.06;1759016;81;21477;-37
2022/09/10 10:15:43;;;;;;;6.22;3.42;;;;;;;13.05;82.96;101416.64;1759165;81;21053;-37
2022/09/10 10:18:33;;;;;;;8.50;3.35;;;;;;;13.04;82.72;101417.07;1759386;81;21002;-37
2022/09/10 10:21:20;;;;;;;6.92;3.30;;;;;;;13.03;82.35;101412.75;1759059;81;21078;-37
2022/09/10 10:23:47;;;;;;;5.72;3.80;;;;;;;13.03;82.87;101410.61;1759233;81;20907;-37
2022/09/10 10:26:32;;;;;;;7.03;3.70;;;;;;;13.04;83.22;101398.03;1759099;81;21019;-37
2022/09/10 10:29:17;;;;;;;3.85;3.47;;;;;;;13.03;82.55;101399.76;1759297;81;21484;-37
2022/09/10 10:31:46;;;;;;;7.12;3.40;;;;;;;13.02;82.52;101407.59;1758565;81;21548;-37
2022/09/10 10:34:40;;;;;;;11.85;3.52;;;;;;;13.01;81.26;101406.72;1759371;81;21240;-37
2022/09/10 10:37:27;;;;;;;7.28;3.60;;;;;;;12.98;81.78;101404.59;1758279;81;20962;-37
2022/09/10 10:40:13;;;;;;;11.95;3.62;;;;;;;13.00;82.85;101409.32;1759085;81;20903;-37
2022/09/10 10:42:58;;;;;;;6.40;3.33;;;;;;;13.02;81.11;101409.73;1765058;80;21460;-37
2022/09/10 10:45:50;;;;;;;7.97;3.30;;;;;;;13.04;81.65;101404.08;1751987;81;20899;-37
2022/09/10 10:48:55;;;;;;;11.83;3.80;;;;;;;13.06;82.36;101408.81;1765964;81;21828;-37
2022/09/10 10:52:05;;;;;;;8.13;3.83;;;;;;;13.08;82.00;101403.14;1733986;81;20959;-37
2022/09/10 10:54:41;;;;;;;7.87;3.75;;;;;;;13.10;82.02;101396.64;1766033;81;20990;-37
2022/09/10 10:57:28;;;;;;;7.22;3.58;;;;;;;13.12;81.96;101403.09;1765240;81;20946;-37
2022/09/10 11:00:00;;;;;;;12.73;3.83;;;;;;;13.13;81.60;101396.59;1766044;80;21043;-37
2022/09/10 11:02:38;;;;;;;10.23;3.60;;;;;;;13.10;80.76;101401.84;1765566;81;21284;-37
2022/09/10 11:05:30;;;;;;;5.70;3.52;;;;;;;13.06;81.88;101395.81;1766159;81;21037;-37
2022/09/10 11:08:09;;;;;;;8.43;3.87;;;;;;;13.02;82.40;101394.14;1747400;81;20946;-37
2022/09/10 11:10:48;;;;;;;8.13;3.75;;;;;;;12.96;82.01;101394.23;1765832;81;21096;-38
2022/09/10 11:13:42;;;;;;;9.40;3.67;;;;;;;12.92;82.32;101395.16;1766145;80;20994;-38
2022/09/10 11:16:22;;;;;;;12.40;4.00;;;;;;;12.90;82.37;101400.36;1765922;81;21468;-38
2022/09/10 11:18:54;;;;;;;9.60;3.83;;;;;;;12.88;81.76;101394.33;1766098;81;20974;-38
2022/09/10 11:21:38;;;;;;;8.33;4.10;;;;;;;12.87;82.07;101388.71;1765915;81;20900;-38
2022/09/10 11:24:17;;;;;;;10.05;3.85;;;;;;;12.87;81.92;101397.81;1766319;81;20927;-38
2022/09/10 11:27:00;;;;;;;15.10;4.22;;;;;;;12.85;82.34;101389.17;1765959;81;20994;-38
2022/09/10 11:30:04;;;;;;;12.13;4.00;;;;;;;12.86;82.23;101389.59;1750127;81;21191;-38
2022/09/10 11:32:45;;;;;;;7.47;4.65;;;;;;;12.86;82.76;101380.92;1766054;81;21743;-38
2022/09/10 11:35:41;;;;;;;7.08;4.10;;;;;;;12.84;81.88;101377.48;1765939;81;20992;-39
2022/09/10 11:38:25;;;;;;;11.63;4.57;;;;;;;12.84;82.88;101374.47;1740114;81;21018;-39
2022/09/10 11:41:24;;;;;;;5.70;3.75;;;;;;;12.83;82.97;101369.28;1766550;81;21089;-39
2022/09/10 11:44:30;;;;;;;6.78;3.98;;;;;;;12.83;83.14;101365.37;1765742;81;22086;-39
2022/09/10 11:47:22;;;;;;;11.00;4.15;;;;;;;12.81;83.77;101356.75;1719032;81;21520;-38
2022/09/10 11:50:14;;;;;;;8.05;4.20;;;;;;;12.78;83.14;101354.61;1765871;81;20946;-38
2022/09/10 11:52:41;;;;;;;11.60;4.45;;;;;;;12.79;83.14;101343.34;1765966;81;21548;-39
2022/09/10 11:55:12;;;;;;;10.38;3.92;;;;;;;12.76;82.22;101348.58;1766048;81;20887;-39
2022/09/10 11:58:17;;;;;;;9.63;3.98;;;;;;;12.74;81.69;101355.54;1766202;81;22240;-38
2022/09/10 12:01:14;;;;;;;4.80;3.70;;;;;;;12.72;82.58;101352.53;1766035;81;21041;-38
2022/09/10 12:04:14;;;;;;;10.63;3.98;;;;;;;12.66;83.34;101359.98;1765957;81;21428;-38